Time;durP1;ratioP1;P1;durP2;ratioP2;P2;SDS_P1;SDS_P2;PMS_P1;PMS_P2;Temp;Humidity;BMP_temperature;BMP_pressure;BME280_temperature;BME280_humidity;BME280_pressure;Samples;Min_cycle;Max_cycle;Signal;HPM_P1;HPM_P2
2022/12/21 00:04:04;;;;;;;38.55;18.02;;;;;;;;;;12838957;19;20430;-64
2022/12/21 00:08:21;;;;;;;52.33;22.80;;;;;;;;;;12838852;19;20298;-64
2022/12/21 00:12:38;;;;;;;39.63;19.15;;;;;;;;;;12838449;19;20434;-65
2022/12/21 00:16:55;;;;;;;38.10;19.55;;;;;;;;;;12837669;19;20007;-64
2022/12/21 00:21:19;;;;;;;39.00;20.50;;;;;;;;;;12836568;19;20302;-64
2022/12/21 00:25:36;;;;;;;43.05;19.90;;;;;;;;;;12841049;19;20329;-64
2022/12/21 00:29:53;;;;;;;58.40;24.70;;;;;;;;;;12837379;19;20452;-64
2022/12/21 00:34:21;;;;;;;38.58;18.67;;;;;;;;;;12837013;19;20014;-64
2022/12/21 00:38:38;;;;;;;52.28;22.58;;;;;;;;;;12839002;19;20014;-63
2022/12/21 00:42:56;;;;;;;37.63;17.35;;;;;;;;;;12835050;19;20397;-65
2022/12/21 00:47:13;;;;;;;30.73;15.48;;;;;;;;;;12836850;19;20007;-64
2022/12/21 00:51:33;;;;;;;36.50;16.60;;;;;;;;;;12837668;19;20521;-64
2022/12/21 00:55:59;;;;;;;30.27;14.73;;;;;;;;;;12836956;19;20007;-63
2022/12/21 01:00:16;;;;;;;38.47;17.45;;;;;;;;;;12836590;19;20484;-64
2022/12/21 01:04:33;;;;;;;35.30;17.80;;;;;;;;;;12837975;19;20349;-63
2022/12/21 01:08:51;;;;;;;30.65;16.70;;;;;;;;;;12835403;19;20499;-63
2022/12/21 01:13:08;;;;;;;36.20;16.75;;;;;;;;;;12838355;19;20446;-64
2022/12/21 01:17:25;;;;;;;38.28;18.95;;;;;;;;;;12848862;19;20426;-63
2022/12/21 01:21:42;;;;;;;37.55;18.55;;;;;;;;;;12846620;19;20481;-64
2022/12/21 01:25:59;;;;;;;40.95;19.38;;;;;;;;;;12846942;19;20496;-64
2022/12/21 01:30:16;;;;;;;42.45;21.15;;;;;;;;;;12847002;19;20011;-64
2022/12/21 01:34:33;;;;;;;44.20;21.02;;;;;;;;;;12847070;19;20473;-64
2022/12/21 01:38:50;;;;;;;40.63;18.85;;;;;;;;;;12847141;19;20337;-64
2022/12/21 01:43:57;;;;;;;37.40;18.48;;;;;;;;;;12846190;19;20342;-63
2022/12/21 01:48:17;;;;;;;34.92;16.95;;;;;;;;;;12845322;19;20433;-64
2022/12/21 01:52:34;;;;;;;37.92;18.35;;;;;;;;;;12846639;19;20465;-64
2022/12/21 01:56:56;;;;;;;32.30;16.80;;;;;;;;;;12845772;19;20435;-63
2022/12/21 02:01:13;;;;;;;34.30;17.08;;;;;;;;;;12844178;19;20322;-64
2022/12/21 02:05:40;;;;;;;40.73;18.53;;;;;;;;;;12845130;19;20423;-65
2022/12/21 02:09:57;;;;;;;35.95;16.77;;;;;;;;;;12845298;19;20033;-64
2022/12/21 02:14:15;;;;;;;37.35;17.67;;;;;;;;;;12844368;19;20008;-66
2022/12/21 02:18:51;;;;;;;29.80;15.93;;;;;;;;;;12845084;19;20474;-64
2022/12/21 02:23:44;;;;;;;34.65;16.33;;;;;;;;;;12844373;19;20358;-63
2022/12/21 02:28:29;;;;;;;36.83;17.27;;;;;;;;;;12842281;19;20011;-63
2022/12/21 02:33:12;;;;;;;39.00;18.13;;;;;;;;;;12843046;19;20380;-65
2022/12/21 02:38:04;;;;;;;41.38;17.98;;;;;;;;;;12841736;19;20010;-64
2022/12/21 02:47:41;;;;;;;37.25;18.15;;;;;;;;;;12841608;19;20463;-64
2022/12/21 02:52:17;;;;;;;29.67;16.23;;;;;;;;;;12844350;19;20318;-63
2022/12/21 02:56:34;;;;;;;28.77;14.05;;;;;;;;;;12844183;19;20458;-63
2022/12/21 03:00:51;;;;;;;30.23;15.82;;;;;;;;;;12843222;19;20011;-63
2022/12/21 03:05:38;;;;;;;33.25;16.85;;;;;;;;;;12841926;19;20011;-63
2022/12/21 03:10:10;;;;;;;36.83;17.20;;;;;;;;;;12842504;19;20458;-64
2022/12/21 03:14:41;;;;;;;31.98;17.25;;;;;;;;;;12840289;19;20011;-64
2022/12/21 03:19:39;;;;;;;35.58;17.95;;;;;;;;;;12841804;19;20306;-64
2022/12/21 03:24:22;;;;;;;39.30;18.65;;;;;;;;;;12839761;19;20038;-64
2022/12/21 03:28:41;;;;;;;35.75;18.50;;;;;;;;;;12839273;19;20453;-64
2022/12/21 03:33:03;;;;;;;33.25;16.67;;;;;;;;;;12839558;19;20342;-65
2022/12/21 03:37:32;;;;;;;42.05;18.98;;;;;;;;;;12837782;19;20448;-64
2022/12/21 03:41:57;;;;;;;40.33;20.27;;;;;;;;;;12840965;19;20286;-65
2022/12/21 03:46:27;;;;;;;43.05;21.08;;;;;;;;;;12839773;19;20419;-67
2022/12/21 03:50:49;;;;;;;36.78;19.80;;;;;;;;;;12838475;19;20478;-65
2022/12/21 03:55:16;;;;;;;39.75;19.88;;;;;;;;;;12839231;19;20322;-65
2022/12/21 03:59:37;;;;;;;34.38;17.70;;;;;;;;;;12837824;19;20309;-65
2022/12/21 04:04:02;;;;;;;35.58;17.65;;;;;;;;;;12839935;19;20408;-65
2022/12/21 04:08:21;;;;;;;35.17;17.45;;;;;;;;;;12836307;19;20541;-65
2022/12/21 04:12:38;;;;;;;34.65;17.17;;;;;;;;;;12837462;19;20429;-65
2022/12/21 04:16:56;;;;;;;36.40;16.60;;;;;;;;;;12839126;19;20394;-64
2022/12/21 04:21:13;;;;;;;38.03;18.35;;;;;;;;;;12836808;19;20477;-65
2022/12/21 04:30:11;;;;;;;35.10;18.50;;;;;;;;;;12837130;19;20507;-64
2022/12/21 04:34:28;;;;;;;38.53;18.63;;;;;;;;;;12838717;19;20036;-63
2022/12/21 04:38:45;;;;;;;34.88;17.08;;;;;;;;;;12837664;19;20813;-64
2022/12/21 04:43:03;;;;;;;40.55;18.23;;;;;;;;;;12837196;19;20448;-66
2022/12/21 04:47:20;;;;;;;36.00;17.40;;;;;;;;;;12835343;19;20445;-64
2022/12/21 04:51:37;;;;;;;38.20;17.85;;;;;;;;;;12836958;19;20330;-64
2022/12/21 04:55:54;;;;;;;49.40;20.15;;;;;;;;;;12837022;19;20429;-64
2022/12/21 05:00:12;;;;;;;36.97;18.38;;;;;;;;;;12836057;19;20429;-65
2022/12/21 05:04:29;;;;;;;38.55;19.15;;;;;;;;;;12833969;19;20034;-64
2022/12/21 05:08:46;;;;;;;38.75;18.90;;;;;;;;;;12835857;19;20022;-63
2022/12/21 05:13:03;;;;;;;46.42;18.88;;;;;;;;;;12836077;19;20010;-65
2022/12/21 05:17:20;;;;;;;35.72;16.25;;;;;;;;;;12835343;19;20048;-64
2022/12/21 05:21:37;;;;;;;35.75;17.20;;;;;;;;;;12834586;19;20406;-63
2022/12/21 05:25:54;;;;;;;46.67;19.30;;;;;;;;;;12835385;19;20480;-63
2022/12/21 05:30:11;;;;;;;31.33;16.75;;;;;;;;;;12835110;19;20461;-64
2022/12/21 05:34:29;;;;;;;32.30;16.80;;;;;;;;;;12835983;19;20015;-63
2022/12/21 05:38:46;;;;;;;43.15;18.35;;;;;;;;;;12834709;19;20437;-63
2022/12/21 05:43:05;;;;;;;41.47;18.58;;;;;;;;;;12835224;19;20326;-64
2022/12/21 05:47:21;;;;;;;44.42;19.42;;;;;;;;;;12833614;19;20350;-64
2022/12/21 05:51:39;;;;;;;42.83;20.27;;;;;;;;;;12835062;19;20422;-64
2022/12/21 05:55:55;;;;;;;48.33;19.98;;;;;;;;;;12834087;19;20332;-64
2022/12/21 06:00:13;;;;;;;35.78;17.20;;;;;;;;;;12839120;19;20322;-63
2022/12/21 06:04:31;;;;;;;29.60;13.95;;;;;;;;;;12846137;19;20468;-64
2022/12/21 06:08:49;;;;;;;28.40;12.63;;;;;;;;;;12844085;19;20583;-64
2022/12/21 06:13:06;;;;;;;20.35;11.45;;;;;;;;;;12843076;19;20468;-63
2022/12/21 06:17:25;;;;;;;25.50;12.00;;;;;;;;;;12845192;19;20441;-64
2022/12/21 06:21:42;;;;;;;18.05;10.07;;;;;;;;;;12842107;19;20402;-64
2022/12/21 06:26:02;;;;;;;22.42;11.98;;;;;;;;;;12845122;19;20561;-63
2022/12/21 06:30:19;;;;;;;23.40;11.38;;;;;;;;;;12844610;19;20015;-63
2022/12/21 06:34:36;;;;;;;23.80;11.98;;;;;;;;;;12844301;19;20011;-63
2022/12/21 06:38:56;;;;;;;26.02;12.05;;;;;;;;;;12842634;19;20007;-63
2022/12/21 06:43:13;;;;;;;22.15;11.30;;;;;;;;;;12843382;19;20295;-64
2022/12/21 06:47:30;;;;;;;19.85;10.50;;;;;;;;;;12843542;19;20600;-64
2022/12/21 06:51:47;;;;;;;26.00;12.05;;;;;;;;;;12843382;19;20429;-64
2022/12/21 06:56:14;;;;;;;23.10;11.30;;;;;;;;;;12843125;19;20035;-64
2022/12/21 07:00:36;;;;;;;25.88;14.10;;;;;;;;;;12843205;19;20305;-65
2022/12/21 07:04:53;;;;;;;22.73;11.57;;;;;;;;;;12843738;19;20126;-63
2022/12/21 07:09:11;;;;;;;31.15;14.02;;;;;;;;;;12842053;19;20357;-64
2022/12/21 07:13:29;;;;;;;;;;;;;;;;;;12841472;19;20412;-64
2022/12/21 07:17:45;;;;;;;40.67;15.73;;;;;;;;;;12842308;19;20305;-63
2022/12/21 07:22:02;;;;;;;20.50;10.32;;;;;;;;;;12843178;19;20433;-64
2022/12/21 07:26:22;;;;;;;36.40;15.18;;;;;;;;;;12786163;19;20086;-64
2022/12/21 07:30:39;;;;;;;34.80;14.88;;;;;;;;;;12843488;19;20010;-66
2022/12/21 07:34:56;;;;;;;31.35;12.45;;;;;;;;;;12842516;19;20425;-63
2022/12/21 07:39:14;;;;;;;33.05;16.15;;;;;;;;;;12840428;19;20299;-64
2022/12/21 07:43:31;;;;;;;26.73;14.43;;;;;;;;;;12842001;19;20011;-64
2022/12/21 07:47:48;;;;;;;29.02;15.00;;;;;;;;;;12839761;19;20023;-64
2022/12/21 07:52:05;;;;;;;66.07;26.73;;;;;;;;;;12841522;19;20003;-65
2022/12/21 07:56:22;;;;;;;45.65;18.63;;;;;;;;;;12842431;19;20451;-65
2022/12/21 08:00:40;;;;;;;34.58;15.15;;;;;;;;;;12841350;19;20489;-64
2022/12/21 08:04:58;;;;;;;46.27;20.57;;;;;;;;;;12843963;19;20322;-64
2022/12/21 08:09:15;;;;;;;39.63;16.65;;;;;;;;;;12837878;19;20342;-65
2022/12/21 08:13:32;;;;;;;32.92;15.63;;;;;;;;;;12839016;19;20363;-66
2022/12/21 08:17:51;;;;;;;27.00;13.40;;;;;;;;;;12840457;19;20006;-64
2022/12/21 08:22:09;;;;;;;28.15;12.13;;;;;;;;;;12838079;19;20364;-64
2022/12/21 08:26:26;;;;;;;33.35;14.25;;;;;;;;;;12837484;19;20342;-65
2022/12/21 08:30:43;;;;;;;46.10;21.45;;;;;;;;;;12838721;19;20468;-63
2022/12/21 08:35:01;;;;;;;44.85;24.65;;;;;;;;;;12838930;19;20429;-64
2022/12/21 08:39:18;;;;;;;35.97;16.83;;;;;;;;;;12837012;19;20441;-64
2022/12/21 08:43:36;;;;;;;35.42;18.08;;;;;;;;;;12837397;19;20326;-64
2022/12/21 08:47:54;;;;;;;40.85;26.40;;;;;;;;;;12837381;19;20472;-64
2022/12/21 08:52:11;;;;;;;41.33;26.75;;;;;;;;;;12837270;19;20353;-64
2022/12/21 08:56:28;;;;;;;29.38;15.73;;;;;;;;;;12837591;19;20475;-65
2022/12/21 09:00:46;;;;;;;43.35;22.20;;;;;;;;;;12836319;19;20444;-64
2022/12/21 09:05:04;;;;;;;37.83;20.97;;;;;;;;;;12837550;19;20493;-66
2022/12/21 09:09:21;;;;;;;38.90;21.58;;;;;;;;;;12832498;19;20090;-65
2022/12/21 09:13:39;;;;;;;74.60;43.10;;;;;;;;;;12836107;19;20433;-64
2022/12/21 09:17:57;;;;;;;32.67;19.80;;;;;;;;;;12836334;19;20021;-64
2022/12/21 09:22:14;;;;;;;48.00;29.05;;;;;;;;;;12832563;19;20372;-65
2022/12/21 09:26:31;;;;;;;31.83;19.27;;;;;;;;;;12833899;19;20447;-65
2022/12/21 09:30:48;;;;;;;34.72;19.73;;;;;;;;;;12835598;19;20314;-64
2022/12/21 09:35:05;;;;;;;37.08;22.70;;;;;;;;;;12841342;19;20363;-64
2022/12/21 09:39:22;;;;;;;39.67;20.42;;;;;;;;;;12847014;19;20531;-64
2022/12/21 09:43:42;;;;;;;39.03;18.70;;;;;;;;;;12847968;19;20420;-63
2022/12/21 09:48:09;;;;;;;45.40;25.88;;;;;;;;;;12847383;19;20014;-64
2022/12/21 09:52:43;;;;;;;50.70;28.40;;;;;;;;;;12847527;19;20010;-64
2022/12/21 09:57:00;;;;;;;30.13;16.55;;;;;;;;;;12846924;19;20045;-64
2022/12/21 10:01:27;;;;;;;28.00;15.95;;;;;;;;;;12846822;19;20455;-65
2022/12/21 10:06:18;;;;;;;29.75;15.02;;;;;;;;;;12845639;19;20311;-64
2022/12/21 10:10:39;;;;;;;31.33;16.67;;;;;;;;;;12846147;19;20006;-64
2022/12/21 10:15:19;;;;;;;31.67;16.80;;;;;;;;;;12845407;19;20341;-63
2022/12/21 10:20:02;;;;;;;28.00;15.13;;;;;;;;;;12843432;19;20509;-63
2022/12/21 10:24:45;;;;;;;34.00;19.55;;;;;;;;;;12845298;19;20020;-64
2022/12/21 10:29:12;;;;;;;27.17;14.60;;;;;;;;;;12843313;19;20693;-63
2022/12/21 10:33:29;;;;;;;30.17;15.43;;;;;;;;;;12844839;19;20434;-65
2022/12/21 10:37:50;;;;;;;28.80;14.23;;;;;;;;;;12845741;19;20333;-64
2022/12/21 10:42:34;;;;;;;28.80;14.77;;;;;;;;;;12841614;19;20338;-64
2022/12/21 10:46:51;;;;;;;46.75;21.55;;;;;;;;;;12841857;19;20463;-64
2022/12/21 10:51:27;;;;;;;74.60;29.95;;;;;;;;;;12841570;19;20014;-63
2022/12/21 10:55:46;;;;;;;69.88;26.40;;;;;;;;;;12842346;19;20037;-65
2022/12/21 11:00:24;;;;;;;42.63;21.17;;;;;;;;;;12844147;19;20493;-64
2022/12/21 11:04:41;;;;;;;78.60;39.80;;;;;;;;;;12842366;19;20350;-65
2022/12/21 11:08:58;;;;;;;31.73;18.88;;;;;;;;;;12843321;19;20019;-64
2022/12/21 11:13:17;;;;;;;27.90;14.02;;;;;;;;;;12842891;19;20452;-65
2022/12/21 11:17:34;;;;;;;28.10;16.23;;;;;;;;;;12842440;19;20322;-63
2022/12/21 11:21:57;;;;;;;33.42;16.90;;;;;;;;;;12841706;19;20433;-64
2022/12/21 11:26:15;;;;;;;30.65;16.40;;;;;;;;;;12840443;19;20496;-64
2022/12/21 11:30:35;;;;;;;34.22;15.32;;;;;;;;;;12842083;19;20632;-64
2022/12/21 11:34:55;;;;;;;39.38;19.15;;;;;;;;;;12840031;19;20306;-64
2022/12/21 11:39:22;;;;;;;44.40;22.40;;;;;;;;;;12839953;19;20014;-64
2022/12/21 11:43:50;;;;;;;45.45;23.30;;;;;;;;;;12839664;19;20413;-65
2022/12/21 11:49:24;;;;;;;55.20;24.48;;;;;;;;;;12840357;19;20626;-66
2022/12/21 11:53:50;;;;;;;47.50;22.65;;;;;;;;;;12838272;19;20002;-65
2022/12/21 11:58:29;;;;;;;43.33;20.67;;;;;;;;;;12839252;19;20334;-63
2022/12/21 12:03:45;;;;;;;38.80;20.88;;;;;;;;;;12839781;19;20448;-64
2022/12/21 12:08:24;;;;;;;84.25;42.47;;;;;;;;;;12839943;19;20321;-64
2022/12/21 12:13:21;;;;;;;33.20;18.58;;;;;;;;;;12839553;19;20452;-64
2022/12/21 12:18:07;;;;;;;26.45;14.63;;;;;;;;;;12836885;19;20417;-63
2022/12/21 12:22:29;;;;;;;84.03;38.33;;;;;;;;;;12836825;19;20020;-64
2022/12/21 12:26:49;;;;;;;93.18;43.90;;;;;;;;;;12838320;19;20311;-64
2022/12/21 12:31:36;;;;;;;91.68;41.85;;;;;;;;;;12838751;19;20350;-65
2022/12/21 12:36:01;;;;;;;88.07;43.83;;;;;;;;;;12837694;19;20492;-63
2022/12/21 12:40:44;;;;;;;48.08;26.50;;;;;;;;;;12838802;19;20486;-63
2022/12/21 12:45:35;;;;;;;32.80;18.38;;;;;;;;;;12838413;19;20381;-69
2022/12/21 12:50:39;;;;;;;29.70;15.85;;;;;;;;;;12836964;19;20712;-64
2022/12/21 12:55:15;;;;;;;26.70;13.05;;;;;;;;;;12837445;19;20350;-64
2022/12/21 12:59:58;;;;;;;24.15;11.90;;;;;;;;;;12835332;19;20429;-65
2022/12/21 13:04:45;;;;;;;32.90;24.45;;;;;;;;;;12834722;19;20082;-64
2022/12/21 13:09:42;;;;;;;22.45;13.20;;;;;;;;;;12837182;19;20451;-66
2022/12/21 13:14:30;;;;;;;24.77;13.20;;;;;;;;;;12841318;19;20041;-65
2022/12/21 13:18:59;;;;;;;27.17;13.63;;;;;;;;;;12849280;19;20041;-64
2022/12/21 13:23:27;;;;;;;31.30;14.88;;;;;;;;;;12847247;19;20343;-64
2022/12/21 13:27:45;;;;;;;;;;;;;;;;;;12847304;19;20437;-65
2022/12/21 13:32:14;;;;;;;41.83;19.95;;;;;;;;;;12848110;19;19921;-65
2022/12/21 13:36:37;;;;;;;35.97;17.42;;;;;;;;;;12846499;19;20417;-64
2022/12/21 13:41:12;;;;;;;24.60;12.95;;;;;;;;;;12846559;19;20036;-64
2022/12/21 13:46:01;;;;;;;23.38;11.95;;;;;;;;;;12846923;19;20318;-64
2022/12/21 13:50:45;;;;;;;29.67;15.60;;;;;;;;;;12779684;19;20631;-67
2022/12/21 13:55:57;;;;;;;27.30;14.45;;;;;;;;;;12837448;19;20353;-65
2022/12/21 14:00:25;;;;;;;28.38;14.95;;;;;;;;;;12844724;19;20460;-66
2022/12/21 14:04:52;;;;;;;29.50;14.13;;;;;;;;;;12843589;19;20351;-65
2022/12/21 14:09:36;;;;;;;29.77;15.07;;;;;;;;;;12843877;19;20555;-65
2022/12/21 14:15:03;;;;;;;25.58;13.05;;;;;;;;;;12843813;19;20306;-65
2022/12/21 14:19:24;;;;;;;32.03;16.52;;;;;;;;;;12843029;19;20309;-66
2022/12/21 14:23:54;;;;;;;30.38;15.48;;;;;;;;;;12845402;19;20037;-66
2022/12/21 14:28:29;;;;;;;34.25;15.98;;;;;;;;;;12842343;19;20011;-64
2022/12/21 14:32:53;;;;;;;29.45;14.98;;;;;;;;;;12843231;19;20437;-65
2022/12/21 14:37:10;;;;;;;27.42;14.30;;;;;;;;;;12843131;19;20324;-65
2022/12/21 14:41:31;;;;;;;24.40;13.77;;;;;;;;;;12843826;19;20437;-65
2022/12/21 14:46:26;;;;;;;31.60;16.15;;;;;;;;;;12843262;19;20373;-65
2022/12/21 14:50:43;;;;;;;37.95;19.35;;;;;;;;;;12843835;19;20465;-65
2022/12/21 14:55:00;;;;;;;29.35;16.30;;;;;;;;;;12844495;19;20345;-64
2022/12/21 14:59:18;;;;;;;32.70;16.20;;;;;;;;;;12841330;19;20437;-65
2022/12/21 15:03:45;;;;;;;28.40;15.32;;;;;;;;;;12842667;19;20317;-66
2022/12/21 15:08:02;;;;;;;27.60;15.10;;;;;;;;;;12840168;19;20361;-66
2022/12/21 15:12:38;;;;;;;35.42;15.25;;;;;;;;;;12842457;19;20375;-66
2022/12/21 15:16:58;;;;;;;39.75;22.52;;;;;;;;;;12840377;19;20460;-65
2022/12/21 15:21:37;;;;;;;49.17;24.33;;;;;;;;;;12838960;19;20500;-68
2022/12/21 15:26:05;;;;;;;45.75;21.88;;;;;;;;;;12842556;19;20434;-65
2022/12/21 15:30:29;;;;;;;56.20;26.80;;;;;;;;;;12839027;19;20429;-66
2022/12/21 15:34:53;;;;;;;33.58;16.08;;;;;;;;;;12838176;19;20457;-65
2022/12/21 15:39:24;;;;;;;37.92;16.95;;;;;;;;;;12840147;19;20459;-66
2022/12/21 15:43:47;;;;;;;35.20;19.45;;;;;;;;;;12841096;19;20359;-65
2022/12/21 15:48:19;;;;;;;36.00;19.40;;;;;;;;;;12840836;19;20379;-66
2022/12/21 15:52:51;;;;;;;25.70;13.50;;;;;;;;;;12839989;19;20449;-65
2022/12/21 15:57:14;;;;;;;29.08;14.05;;;;;;;;;;12839872;19;20435;-66
2022/12/21 16:01:31;;;;;;;26.73;14.23;;;;;;;;;;12840039;19;20006;-66
2022/12/21 16:06:02;;;;;;;31.48;15.45;;;;;;;;;;12843415;19;20363;-66
2022/12/21 16:10:35;;;;;;;30.73;15.70;;;;;;;;;;12837310;19;20312;-65
2022/12/21 16:14:52;;;;;;;57.15;28.90;;;;;;;;;;12838976;19;20014;-65
2022/12/21 16:19:32;;;;;;;29.60;15.65;;;;;;;;;;12840036;19;20429;-66
2022/12/21 16:23:51;;;;;;;26.58;15.00;;;;;;;;;;12837027;19;20322;-67
2022/12/21 16:28:39;;;;;;;29.15;14.43;;;;;;;;;;12838051;19;20363;-66
2022/12/21 16:32:56;;;;;;;27.85;14.63;;;;;;;;;;12838475;19;20302;-65
2022/12/21 16:37:22;;;;;;;29.52;14.80;;;;;;;;;;12835854;19;20426;-65
2022/12/21 16:41:40;;;;;;;31.80;15.57;;;;;;;;;;12837871;19;20449;-65
2022/12/21 16:46:03;;;;;;;40.92;23.85;;;;;;;;;;12835240;19;20497;-64
2022/12/21 16:50:54;;;;;;;36.78;20.10;;;;;;;;;;12835063;19;20027;-65
2022/12/21 16:55:24;;;;;;;49.78;27.15;;;;;;;;;;12835959;19;20460;-65
2022/12/21 16:59:47;;;;;;;38.10;21.05;;;;;;;;;;12837178;19;20456;-66
2022/12/21 17:04:13;;;;;;;32.63;18.42;;;;;;;;;;12837769;19;20325;-67
2022/12/21 17:08:40;;;;;;;37.05;19.42;;;;;;;;;;12836247;19;20326;-65
2022/12/21 17:13:04;;;;;;;40.92;21.95;;;;;;;;;;12834968;19;20011;-65
2022/12/21 17:17:36;;;;;;;34.10;18.95;;;;;;;;;;12835867;19;20477;-65
2022/12/21 17:22:25;;;;;;;36.35;19.02;;;;;;;;;;12833850;19;20445;-65
2022/12/21 17:26:43;;;;;;;38.58;19.10;;;;;;;;;;12832929;19;20425;-66
2022/12/21 17:31:13;;;;;;;43.80;22.70;;;;;;;;;;12833510;19;20335;-65
2022/12/21 17:35:32;;;;;;;73.57;36.15;;;;;;;;;;12833733;19;20521;-66
2022/12/21 17:39:48;;;;;;;100.15;46.10;;;;;;;;;;12834991;19;20019;-67
2022/12/21 17:44:06;;;;;;;175.20;75.25;;;;;;;;;;12832718;19;20011;-66
2022/12/21 17:48:43;;;;;;;110.45;51.88;;;;;;;;;;12835058;19;20627;-66
2022/12/21 17:53:03;;;;;;;136.32;61.25;;;;;;;;;;12832635;19;20425;-65
2022/12/21 17:57:20;;;;;;;112.50;50.90;;;;;;;;;;12843406;19;20449;-65
2022/12/21 18:01:43;;;;;;;83.47;38.28;;;;;;;;;;12771241;19;20456;-66
2022/12/21 18:06:00;;;;;;;70.03;33.72;;;;;;;;;;12844305;19;20372;-67
2022/12/21 18:10:29;;;;;;;60.00;27.23;;;;;;;;;;12844302;19;20483;-65
2022/12/21 18:14:47;;;;;;;66.82;31.33;;;;;;;;;;12845842;19;20451;-65
2022/12/21 18:19:06;;;;;;;59.80;29.17;;;;;;;;;;12845202;19;20018;-65
2022/12/21 18:23:41;;;;;;;54.08;28.85;;;;;;;;;;12844470;19;20358;-66
2022/12/21 18:27:58;;;;;;;56.13;28.77;;;;;;;;;;12847324;19;20633;-65
2022/12/21 18:32:16;;;;;;;58.83;30.85;;;;;;;;;;12841445;19;20433;-65
2022/12/21 18:36:34;;;;;;;91.60;41.83;;;;;;;;;;12841603;19;20432;-66
2022/12/21 18:40:51;;;;;;;;;;;;;;;;;;12842505;19;20334;-66
2022/12/21 18:45:09;;;;;;;43.40;21.20;;;;;;;;;;12843260;19;20295;-66
2022/12/21 18:49:42;;;;;;;44.20;22.23;;;;;;;;;;12827997;19;20342;-69
2022/12/21 18:53:59;;;;;;;41.35;19.85;;;;;;;;;;12823399;19;20015;-65
2022/12/21 18:58:17;;;;;;;57.13;31.08;;;;;;;;;;12842828;19;20059;-66
2022/12/21 19:02:34;;;;;;;35.35;20.45;;;;;;;;;;12842323;19;20720;-66
2022/12/21 19:06:53;;;;;;;212.40;74.82;;;;;;;;;;12838906;19;20306;-66
2022/12/21 19:11:15;;;;;;;120.80;47.00;;;;;;;;;;12841182;19;20014;-66
2022/12/21 19:15:33;;;;;;;105.93;43.22;;;;;;;;;;12842727;19;20030;-67
2022/12/21 19:19:54;;;;;;;60.08;29.23;;;;;;;;;;12839595;19;20430;-66
2022/12/21 19:24:19;;;;;;;94.03;40.28;;;;;;;;;;12843733;19;20007;-66
2022/12/21 19:28:35;;;;;;;72.25;31.13;;;;;;;;;;12840850;19;20401;-66
2022/12/21 19:32:53;;;;;;;58.65;28.95;;;;;;;;;;12841444;19;20016;-66
2022/12/21 19:37:22;;;;;;;71.05;33.30;;;;;;;;;;12808233;19;20375;-66
2022/12/21 19:41:39;;;;;;;67.75;34.38;;;;;;;;;;12839337;19;20470;-67
2022/12/21 19:45:56;;;;;;;104.40;45.35;;;;;;;;;;12786870;19;20460;-66
2022/12/21 19:50:17;;;;;;;56.37;25.23;;;;;;;;;;12837269;19;20356;-66
2022/12/21 19:54:34;;;;;;;55.92;28.70;;;;;;;;;;12839585;19;20007;-67
2022/12/21 19:58:55;;;;;;;46.47;23.17;;;;;;;;;;12839773;19;20298;-65
2022/12/21 20:03:13;;;;;;;55.55;27.80;;;;;;;;;;12840505;19;20010;-66
2022/12/21 20:07:30;;;;;;;55.13;27.00;;;;;;;;;;12838493;19;20439;-67
2022/12/21 20:11:47;;;;;;;83.45;37.85;;;;;;;;;;12840807;19;20003;-66
2022/12/21 20:16:05;;;;;;;89.73;38.97;;;;;;;;;;12784036;19;20400;-66
2022/12/21 20:20:38;;;;;;;71.27;34.87;;;;;;;;;;11129685;19;10000979;-66
2022/12/21 20:24:55;;;;;;;76.50;34.50;;;;;;;;;;10972783;19;10001549;-66
2022/12/21 20:29:17;;;;;;;61.78;30.23;;;;;;;;;;12837929;19;20355;-66
2022/12/21 20:33:34;;;;;;;77.28;33.90;;;;;;;;;;12839466;19;20313;-66
2022/12/21 20:37:51;;;;;;;72.38;35.10;;;;;;;;;;12838933;19;20472;-66
2022/12/21 20:47:00;;;;;;;78.68;34.13;;;;;;;;;;8031625;19;10001881;-66
2022/12/21 20:51:19;;;;;;;123.72;41.55;;;;;;;;;;12836779;19;20485;-66
2022/12/21 21:00:14;;;;;;;76.00;30.42;;;;;;;;;;12837043;19;20465;-68
2022/12/21 21:04:35;;;;;;;69.63;30.60;;;;;;;;;;12837859;19;20339;-66
2022/12/21 21:08:52;;;;;;;78.22;33.38;;;;;;;;;;12835755;19;20367;-68
2022/12/21 21:13:09;;;;;;;76.63;32.90;;;;;;;;;;12836915;19;20426;-66
2022/12/21 21:17:31;;;;;;;51.13;24.03;;;;;;;;;;12835724;19;20338;-66
2022/12/21 21:26:24;;;;;;;60.97;28.17;;;;;;;;;;12834636;19;20440;-65
2022/12/21 21:30:44;;;;;;;64.50;29.55;;;;;;;;;;12841609;19;20408;-67
2022/12/21 21:35:01;;;;;;;69.85;33.92;;;;;;;;;;12849351;19;20010;-66
2022/12/21 21:44:31;;;;;;;49.60;24.35;;;;;;;;;;12848204;19;20322;-66
2022/12/21 21:48:48;;;;;;;49.67;25.40;;;;;;;;;;12846283;19;20457;-66
2022/12/21 21:53:05;;;;;;;51.28;27.00;;;;;;;;;;12850254;19;20440;-66
2022/12/21 21:57:26;;;;;;;63.70;31.35;;;;;;;;;;12848473;19;20477;-67
2022/12/21 22:01:44;;;;;;;84.95;37.25;;;;;;;;;;12845761;19;20319;-66
2022/12/21 22:06:01;;;;;;;;;;;;;;;;;;12848956;19;20457;-66
2022/12/21 22:10:30;;;;;;;68.38;31.25;;;;;;;;;;12844723;19;20282;-66
2022/12/21 22:33:11;;;;;;;92.35;37.95;;;;;;;;;;12830391;19;123137;-67
2022/12/21 22:42:30;;;;;;;64.05;29.90;;;;;;;;;;12842900;19;20429;-66
2022/12/21 22:46:47;;;;;;;34.60;18.50;;;;;;;;;;12842900;19;20469;-66
2022/12/21 22:51:26;;;;;;;33.90;17.38;;;;;;;;;;12842280;19;20014;-66
2022/12/21 22:55:46;;;;;;;52.33;25.02;;;;;;;;;;12843981;19;20433;-66
2022/12/21 23:00:06;;;;;;;47.25;22.83;;;;;;;;;;12842500;19;20322;-67
2022/12/21 23:04:23;;;;;;;88.22;34.67;;;;;;;;;;12843240;19;20436;-66
2022/12/21 23:08:41;;;;;;;55.20;23.30;;;;;;;;;;12842851;19;20490;-68
2022/12/21 23:45:35;;;;;;;22.70;10.55;;;;;;;;;;12840723;19;20339;-67
